Terminal Aerodrome Forecast
Issued by NWS

Home | Current Version | Previous Version | Text Only | Print | Product List | Glossary On
Versions: 1 2 3 4 5 6 7 8 9 10 11 12 13 14 15 16 17 18 19 20 21 22 23 24 25 26 27 28 29 30 31 32 33 34 35 36 37 38 39
000
FTUS44 KHGX 291217 AAB
TAFLBX
TAF AMD
KLBX 291217Z 2912/3012 06003KT P6SM VCTS SCT025CB BKN040
      TEMPO 2912/2914 VRB10G15KT 2SM TSRA BKN025CB
     FM291600 11010KT P6SM VCTS SCT030CB SCT150
     FM292300 13006KT P6SM BKN150
     FM300500 16006KT P6SM VCSH SCT020=

USA.gov is the U.S. government's official web portal to all federal, state and local government web resources and services.